createdAt,value
2023-12-04T00:00:02.067Z,27.66
2023-12-04T00:01:02.089Z,27.64
2023-12-04T00:02:02.050Z,27.63
2023-12-04T00:03:02.156Z,27.63
2023-12-04T00:04:02.055Z,27.64
2023-12-04T00:05:02.018Z,27.64
2023-12-04T00:06:01.946Z,27.64
2023-12-04T00:07:01.976Z,27.64
2023-12-04T00:08:01.952Z,27.64
2023-12-04T00:09:02.112Z,27.64
2023-12-04T00:10:01.981Z,27.61
2023-12-04T00:11:01.934Z,27.61
2023-12-04T00:12:01.946Z,27.61
2023-12-04T00:13:01.959Z,27.61
2023-12-04T00:14:01.884Z,27.63
2023-12-04T00:15:02.068Z,27.64
2023-12-04T00:16:01.912Z,27.63
2023-12-04T00:17:01.865Z,27.66
2023-12-04T00:18:02.022Z,27.66
2023-12-04T00:19:01.975Z,27.66
2023-12-04T00:20:01.805Z,27.71
2023-12-04T00:21:02.128Z,27.72
2023-12-04T00:22:01.820Z,27.73
2023-12-04T00:23:01.820Z,27.73
2023-12-04T00:24:01.840Z,27.73
2023-12-04T00:25:01.874Z,27.72
2023-12-04T00:26:01.752Z,27.68
2023-12-04T00:27:01.859Z,27.66
2023-12-04T00:28:02.087Z,27.67
2023-12-04T00:29:01.741Z,27.67
2023-12-04T00:30:01.783Z,27.66
2023-12-04T00:31:01.844Z,27.67
2023-12-04T00:32:01.805Z,27.68
2023-12-04T00:33:01.940Z,27.68
2023-12-04T00:34:01.911Z,27.64
2023-12-04T00:35:01.790Z,27.55
2023-12-04T00:36:01.714Z,27.52
2023-12-04T00:37:01.704Z,27.50
2023-12-04T00:38:01.631Z,27.48
2023-12-04T00:39:01.734Z,27.48
2023-12-04T00:40:01.659Z,27.48
2023-12-04T00:41:01.622Z,27.45
2023-12-04T00:42:01.684Z,27.40
2023-12-04T00:43:01.726Z,27.35
2023-12-04T00:44:01.662Z,27.33
2023-12-04T00:45:01.760Z,27.33
2023-12-04T00:46:01.592Z,27.33
2023-12-04T00:47:01.574Z,27.33
2023-12-04T00:48:01.724Z,27.33
2023-12-04T00:49:01.555Z,27.33
2023-12-04T00:50:01.517Z,27.29
2023-12-04T00:51:01.690Z,27.29
2023-12-04T00:52:01.511Z,27.30
2023-12-04T00:53:01.528Z,27.30
2023-12-04T00:54:01.502Z,27.30
2023-12-04T00:55:01.569Z,27.34
2023-12-04T00:56:01.424Z,27.35
2023-12-04T00:57:01.635Z,27.34
2023-12-04T00:58:01.468Z,27.33
2023-12-04T00:59:01.438Z,27.29
2023-12-04T01:00:01.565Z,27.25
2023-12-04T01:01:01.393Z,27.23
2023-12-04T01:02:01.379Z,27.22
2023-12-04T01:03:01.388Z,27.19
2023-12-04T01:04:01.345Z,27.20
2023-12-04T01:05:01.452Z,27.18
2023-12-04T01:06:01.388Z,27.19
2023-12-04T01:07:01.436Z,27.16
2023-12-04T01:08:01.403Z,27.18
2023-12-04T01:09:14.921Z,27.18
2023-12-04T01:10:01.318Z,27.18
2023-12-04T01:11:01.446Z,27.18
2023-12-04T01:12:01.324Z,27.16
2023-12-04T01:13:01.339Z,27.13
2023-12-04T01:14:01.270Z,27.13
2023-12-04T01:15:01.356Z,27.15
2023-12-04T01:16:01.329Z,27.15
2023-12-04T01:17:01.250Z,27.08
2023-12-04T01:18:01.323Z,27.04
2023-12-04T01:19:02.047Z,27.04
2023-12-04T01:20:01.167Z,27.00
2023-12-04T01:21:01.179Z,27.00
2023-12-04T01:22:01.237Z,26.98
2023-12-04T01:23:01.193Z,26.97
2023-12-04T01:24:01.199Z,26.91
2023-12-04T01:25:01.176Z,26.86
2023-12-04T01:26:01.110Z,26.85
2023-12-04T01:27:01.321Z,26.83
2023-12-04T01:28:01.157Z,26.82
2023-12-04T01:29:01.124Z,26.81
2023-12-04T01:30:01.131Z,26.82
2023-12-04T01:31:01.088Z,26.86
2023-12-04T01:32:01.053Z,26.85
2023-12-04T01:33:01.539Z,26.85
2023-12-04T01:34:01.118Z,26.81
2023-12-04T01:35:01.079Z,26.79
2023-12-04T01:36:01.252Z,26.78
2023-12-04T01:37:01.028Z,26.74
2023-12-04T01:38:01.103Z,26.73
2023-12-04T01:39:01.217Z,26.68
2023-12-04T01:40:01.058Z,26.61
2023-12-04T01:41:01.009Z,26.55
2023-12-04T01:42:01.001Z,26.52
2023-12-04T01:43:00.979Z,26.49
2023-12-04T01:44:00.903Z,26.46
2023-12-04T01:45:01.140Z,26.44
2023-12-04T01:46:00.912Z,26.41
2023-12-04T01:47:00.939Z,26.41
2023-12-04T01:48:01.059Z,26.39
2023-12-04T01:49:01.055Z,26.33
2023-12-04T01:50:00.877Z,26.29
2023-12-04T01:51:00.878Z,26.26
2023-12-04T01:52:00.879Z,26.26
2023-12-04T01:53:00.831Z,26.29
2023-12-04T01:54:00.794Z,26.30
2023-12-04T01:55:00.863Z,26.31
2023-12-04T01:56:01.061Z,26.30
2023-12-04T01:57:00.816Z,26.27
2023-12-04T01:58:00.775Z,26.26
2023-12-04T01:59:01.857Z,26.24
2023-12-04T02:00:00.746Z,26.16
2023-12-04T02:01:00.861Z,26.13
2023-12-04T02:02:00.827Z,26.10
2023-12-04T02:03:00.757Z,26.06
2023-12-04T02:04:00.809Z,26.01
2023-12-04T02:05:00.871Z,25.95
2023-12-04T02:06:07.412Z,25.89
2023-12-04T02:07:00.742Z,25.85
2023-12-04T02:08:00.760Z,25.85
2023-12-04T02:09:00.642Z,25.91
2023-12-04T02:10:01.350Z,25.96
2023-12-04T02:11:00.649Z,25.98
2023-12-04T02:12:00.848Z,25.98
2023-12-04T02:13:00.674Z,25.93
2023-12-04T02:14:00.867Z,25.88
2023-12-04T02:15:00.568Z,25.81
2023-12-04T02:16:00.621Z,25.77
2023-12-04T02:17:00.620Z,25.76
2023-12-04T02:18:00.704Z,25.74
2023-12-04T02:19:00.673Z,25.70
2023-12-04T02:20:00.610Z,25.67
2023-12-04T02:21:00.602Z,25.66
2023-12-04T02:22:00.583Z,25.67
2023-12-04T02:23:00.496Z,25.63
2023-12-04T02:24:00.569Z,25.61
2023-12-04T02:25:00.610Z,25.61
2023-12-04T02:26:11.608Z,25.59
2023-12-04T02:27:57.429Z,25.54
2023-12-04T02:28:04.396Z,25.49
2023-12-04T02:29:03.733Z,25.43
2023-12-04T02:30:03.694Z,25.44
2023-12-04T02:31:03.759Z,25.46
2023-12-04T02:32:03.713Z,25.49
2023-12-04T02:33:03.685Z,25.55
2023-12-04T02:34:03.694Z,25.56
2023-12-04T02:35:03.618Z,25.58
2023-12-04T02:36:03.636Z,25.61
2023-12-04T02:37:03.640Z,25.62
2023-12-04T02:38:03.695Z,25.62
2023-12-04T02:39:03.591Z,25.59
2023-12-04T02:40:03.694Z,25.56
2023-12-04T02:41:03.604Z,25.52
2023-12-04T02:42:03.616Z,25.51
2023-12-04T02:43:03.570Z,25.48
2023-12-04T02:44:03.591Z,25.43
2023-12-04T02:45:03.538Z,25.41
2023-12-04T02:46:03.772Z,25.39
2023-12-04T02:47:03.489Z,25.36
2023-12-04T02:48:03.605Z,25.36
2023-12-04T02:49:03.532Z,25.36
2023-12-04T02:50:03.432Z,25.34
2023-12-04T02:51:03.421Z,25.31
2023-12-04T02:52:03.435Z,25.26
2023-12-04T02:53:03.439Z,25.24
2023-12-04T02:54:03.351Z,25.18
2023-12-04T02:55:03.436Z,25.19
2023-12-04T02:56:03.458Z,25.22
2023-12-04T02:57:03.372Z,25.22
2023-12-04T02:58:03.562Z,25.21
2023-12-04T02:59:03.349Z,25.21
2023-12-04T03:00:03.338Z,25.22
2023-12-04T03:01:03.503Z,25.21
2023-12-04T03:02:03.362Z,25.18
2023-12-04T03:03:03.369Z,25.15
2023-12-04T03:04:03.414Z,25.11
2023-12-04T03:05:03.339Z,25.01
2023-12-04T03:06:03.353Z,25.01
2023-12-04T03:07:03.305Z,25.00
2023-12-04T03:08:03.219Z,24.99
2023-12-04T03:09:03.235Z,24.99
2023-12-04T03:10:03.350Z,25.00
2023-12-04T03:11:03.268Z,25.00
2023-12-04T03:12:18.007Z,25.01
2023-12-04T03:13:03.259Z,25.01
2023-12-04T03:14:03.157Z,25.01
2023-12-04T03:15:03.170Z,24.99
2023-12-04T03:16:03.198Z,24.94
2023-12-04T03:17:03.179Z,24.93
2023-12-04T03:18:04.794Z,24.88
2023-12-04T03:19:03.244Z,24.88
2023-12-04T03:20:03.100Z,24.85
2023-12-04T03:21:03.103Z,24.86
2023-12-04T03:22:03.163Z,24.88
2023-12-04T03:23:03.045Z,24.89
2023-12-04T03:24:03.046Z,24.89
2023-12-04T03:25:03.145Z,24.93
2023-12-04T03:26:03.129Z,24.94
2023-12-04T03:27:03.051Z,24.97
2023-12-04T03:28:03.124Z,24.99
2023-12-04T03:29:02.982Z,24.96
2023-12-04T03:30:03.074Z,24.96
2023-12-04T03:31:03.010Z,24.97
2023-12-04T03:32:02.982Z,25.00
2023-12-04T03:33:03.086Z,25.03
2023-12-04T03:34:03.051Z,25.04
2023-12-04T03:35:02.929Z,25.07
2023-12-04T03:36:03.013Z,25.06
2023-12-04T03:37:03.043Z,25.06
2023-12-04T03:38:02.917Z,25.06
2023-12-04T03:39:02.903Z,25.09
2023-12-04T03:40:02.994Z,25.06
2023-12-04T03:41:03.343Z,25.04
2023-12-04T03:42:02.942Z,24.97
2023-12-04T03:43:02.869Z,24.93
2023-12-04T03:44:02.853Z,24.89
2023-12-04T03:45:02.829Z,24.89
2023-12-04T03:46:02.840Z,24.88
2023-12-04T03:47:02.809Z,24.92
2023-12-04T03:48:02.871Z,24.89
2023-12-04T03:49:02.888Z,24.88
2023-12-04T03:50:02.807Z,24.94
2023-12-04T03:51:02.775Z,24.96
2023-12-04T03:52:02.837Z,24.99
2023-12-04T03:53:02.971Z,24.97
2023-12-04T03:54:02.820Z,24.96
2023-12-04T03:55:02.925Z,24.97
2023-12-04T03:56:02.975Z,24.94
2023-12-04T03:57:02.827Z,24.92
2023-12-04T03:58:02.778Z,24.88
2023-12-04T03:59:02.756Z,24.82
2023-12-04T04:00:02.696Z,24.77
2023-12-04T04:01:07.634Z,24.69
2023-12-04T04:02:02.819Z,24.65
2023-12-04T04:03:02.772Z,24.62
2023-12-04T04:04:02.729Z,24.58
2023-12-04T04:05:02.628Z,24.58
2023-12-04T04:06:02.640Z,24.58
2023-12-04T04:07:02.670Z,24.53
2023-12-04T04:08:02.656Z,24.53
2023-12-04T04:09:02.648Z,24.55
2023-12-04T04:10:02.622Z,24.58
2023-12-04T04:11:02.635Z,24.59
2023-12-04T04:12:02.581Z,24.63
2023-12-04T04:13:02.557Z,24.65
2023-12-04T04:14:02.547Z,24.61
2023-12-04T04:15:02.603Z,24.59
2023-12-04T04:16:02.659Z,24.58
2023-12-04T04:17:02.502Z,24.56
2023-12-04T04:18:02.572Z,24.58
2023-12-04T04:19:02.611Z,24.56
2023-12-04T04:20:02.484Z,24.56
2023-12-04T04:21:02.489Z,24.58
2023-12-04T04:22:02.467Z,24.58
2023-12-04T04:23:02.442Z,24.56
2023-12-04T04:24:02.440Z,24.53
2023-12-04T04:25:02.431Z,24.48
2023-12-04T04:26:02.449Z,24.44
2023-12-04T04:27:02.429Z,24.43
2023-12-04T04:28:02.390Z,24.41
2023-12-04T04:29:02.883Z,24.41
2023-12-04T04:30:02.377Z,24.40
2023-12-04T04:31:02.507Z,24.46
2023-12-04T04:32:02.407Z,24.51
2023-12-04T04:33:02.398Z,24.53
2023-12-04T04:34:02.396Z,24.53
2023-12-04T04:35:02.387Z,24.47
2023-12-04T04:36:02.322Z,24.43
2023-12-04T04:37:02.318Z,24.41
2023-12-04T04:38:02.326Z,24.37
2023-12-04T04:39:02.298Z,24.38
2023-12-04T04:40:02.268Z,24.37
2023-12-04T04:41:02.253Z,24.36
2023-12-04T04:42:02.327Z,24.31
2023-12-04T04:43:02.187Z,24.29
2023-12-04T04:44:02.165Z,24.28
2023-12-04T04:45:02.092Z,24.26
2023-12-04T04:46:02.277Z,24.26
2023-12-04T04:47:02.714Z,24.32
2023-12-04T04:48:02.216Z,24.34
2023-12-04T04:49:02.183Z,24.34
2023-12-04T04:50:02.142Z,24.29
2023-12-04T04:51:02.119Z,24.28
2023-12-04T04:52:02.177Z,24.26
2023-12-04T04:53:02.090Z,24.29
2023-12-04T04:54:02.053Z,24.28
2023-12-04T04:55:02.094Z,24.28
2023-12-04T04:56:02.079Z,24.31
2023-12-04T04:57:02.028Z,24.28
2023-12-04T04:58:02.204Z,24.32
2023-12-04T04:59:02.092Z,24.36
2023-12-04T05:00:01.988Z,24.36
2023-12-04T05:01:02.052Z,24.36
2023-12-04T05:02:01.988Z,24.34
2023-12-04T05:03:01.998Z,24.32
2023-12-04T05:04:02.071Z,24.31
2023-12-04T05:05:01.972Z,24.28
2023-12-04T05:06:01.972Z,24.31
2023-12-04T05:07:01.985Z,24.32
2023-12-04T05:08:01.964Z,24.31
2023-12-04T05:09:01.989Z,24.28
2023-12-04T05:10:02.990Z,24.25
2023-12-04T05:11:01.905Z,24.21
2023-12-04T05:12:01.829Z,24.19
2023-12-04T05:13:01.903Z,24.16
2023-12-04T05:14:01.846Z,24.18
2023-12-04T05:15:01.852Z,24.16
2023-12-04T05:16:01.870Z,24.14
2023-12-04T05:17:01.972Z,24.14
2023-12-04T05:18:01.791Z,24.18
2023-12-04T05:19:01.804Z,24.18
2023-12-04T05:20:02.113Z,24.19
2023-12-04T05:21:01.891Z,24.22
2023-12-04T05:22:01.787Z,24.21
2023-12-04T05:23:01.721Z,24.18
2023-12-04T05:24:01.709Z,24.16
2023-12-04T05:25:01.804Z,24.14
2023-12-04T05:26:01.746Z,24.11
2023-12-04T05:27:01.720Z,24.11
2023-12-04T05:28:01.760Z,24.07
2023-12-04T05:29:01.641Z,24.03
2023-12-04T05:30:01.646Z,24.00
2023-12-04T05:31:01.709Z,23.99
2023-12-04T05:32:01.667Z,24.00
2023-12-04T05:33:01.784Z,24.01
2023-12-04T05:34:01.751Z,24.04
2023-12-04T05:35:01.575Z,24.00
2023-12-04T05:36:01.624Z,24.01
2023-12-04T05:37:01.658Z,24.04
2023-12-04T05:38:01.583Z,24.06
2023-12-04T05:39:01.912Z,24.03
2023-12-04T05:40:01.708Z,24.01
2023-12-04T05:41:01.518Z,24.06
2023-12-04T05:42:01.534Z,24.06
2023-12-04T05:43:01.565Z,24.07
2023-12-04T05:44:01.531Z,24.09
2023-12-04T05:45:01.478Z,24.11
2023-12-04T05:46:01.475Z,24.10
2023-12-04T05:47:02.066Z,24.09
2023-12-04T05:48:01.800Z,24.09
2023-12-04T05:49:01.596Z,24.09
2023-12-04T05:50:01.533Z,24.09
2023-12-04T05:51:01.422Z,24.11
2023-12-04T05:52:01.425Z,24.09
2023-12-04T05:53:01.488Z,24.10
2023-12-04T05:54:01.408Z,24.10
2023-12-04T05:55:01.432Z,24.13
2023-12-04T05:56:01.415Z,24.19
2023-12-04T05:57:01.430Z,24.24
2023-12-04T05:58:01.453Z,24.24
2023-12-04T05:59:01.327Z,24.25
2023-12-04T06:00:01.459Z,24.26
2023-12-04T06:01:01.380Z,24.24
2023-12-04T06:02:01.446Z,24.21
2023-12-04T06:03:01.559Z,24.19
2023-12-04T06:04:01.271Z,24.18
2023-12-04T06:05:01.286Z,24.18
2023-12-04T06:06:03.637Z,24.18
2023-12-04T06:07:01.350Z,24.21
2023-12-04T06:08:01.199Z,24.21
2023-12-04T06:09:01.214Z,24.22
2023-12-04T06:10:01.262Z,24.21
2023-12-04T06:11:01.228Z,24.16
2023-12-04T06:12:01.209Z,24.14
2023-12-04T06:13:01.245Z,24.09
2023-12-04T06:14:01.146Z,24.04
2023-12-04T06:15:01.193Z,24.03
2023-12-04T06:16:01.195Z,23.99
2023-12-04T06:17:01.175Z,23.99
2023-12-04T06:18:01.243Z,23.96
2023-12-04T06:19:01.237Z,23.96
2023-12-04T06:20:01.124Z,23.95
2023-12-04T06:21:01.129Z,23.95
2023-12-04T06:22:01.109Z,23.95
2023-12-04T06:23:01.083Z,23.96
2023-12-04T06:24:01.613Z,23.99
2023-12-04T06:25:01.126Z,23.95
2023-12-04T06:26:01.060Z,23.95
2023-12-04T06:27:01.034Z,23.94
2023-12-04T06:28:01.050Z,23.89
2023-12-04T06:29:01.026Z,23.82
2023-12-04T06:30:01.035Z,23.77
2023-12-04T06:31:01.100Z,23.71
2023-12-04T06:32:01.864Z,23.69
2023-12-04T06:33:00.988Z,23.70
2023-12-04T06:34:01.003Z,23.73
2023-12-04T06:35:01.016Z,23.79
2023-12-04T06:36:00.971Z,23.85
2023-12-04T06:37:00.929Z,23.89
2023-12-04T06:38:00.988Z,23.92
2023-12-04T06:39:00.953Z,23.94
2023-12-04T06:40:00.949Z,23.99
2023-12-04T06:41:00.904Z,23.99
2023-12-04T06:42:00.910Z,23.95
2023-12-04T06:43:00.856Z,23.95
2023-12-04T06:44:00.945Z,23.94
2023-12-04T06:45:00.839Z,23.94
2023-12-04T06:46:00.879Z,23.94
2023-12-04T06:47:00.873Z,23.95
2023-12-04T06:48:00.873Z,23.95
2023-12-04T06:49:00.849Z,23.92
2023-12-04T06:50:01.015Z,23.91
2023-12-04T06:51:00.772Z,23.91
2023-12-04T06:52:00.815Z,23.91
2023-12-04T06:53:00.794Z,23.88
2023-12-04T06:54:00.790Z,23.89
2023-12-04T06:55:00.756Z,23.88
2023-12-04T06:56:00.722Z,23.89
2023-12-04T06:57:00.751Z,23.89
2023-12-04T06:58:00.760Z,23.86
2023-12-04T06:59:00.781Z,23.84
2023-12-04T07:00:00.733Z,23.79
2023-12-04T07:01:00.751Z,23.77
2023-12-04T07:02:00.737Z,23.74
2023-12-04T07:03:00.652Z,23.76
2023-12-04T07:04:00.838Z,23.74
2023-12-04T07:05:00.694Z,23.76
2023-12-04T07:06:00.686Z,23.73
2023-12-04T07:07:00.995Z,23.77
2023-12-04T07:08:00.660Z,23.77
2023-12-04T07:09:00.589Z,23.81
2023-12-04T07:10:00.640Z,23.84
2023-12-04T07:11:00.602Z,23.86
2023-12-04T07:12:43.034Z,23.88
2023-12-04T07:13:00.661Z,23.86
2023-12-04T07:14:00.560Z,23.86
2023-12-04T07:15:00.502Z,23.88
2023-12-04T07:16:00.559Z,23.86
2023-12-04T07:17:00.477Z,23.85
2023-12-04T07:18:00.491Z,23.85
2023-12-04T07:19:00.608Z,23.89
2023-12-04T07:20:00.475Z,23.91
2023-12-04T07:21:00.447Z,23.91
2023-12-04T07:22:00.574Z,23.94
2023-12-04T07:23:00.484Z,23.96
2023-12-04T07:24:00.423Z,23.96
2023-12-04T07:25:00.469Z,23.94
2023-12-04T07:26:00.433Z,23.91
2023-12-04T07:27:00.406Z,23.89
2023-12-04T07:28:00.466Z,23.88
2023-12-04T07:29:00.429Z,23.86
2023-12-04T07:30:00.330Z,23.86
2023-12-04T07:31:00.471Z,23.85
2023-12-04T07:32:00.450Z,23.85
2023-12-04T07:33:00.385Z,23.88
2023-12-04T07:34:00.391Z,23.91
2023-12-04T07:35:00.498Z,23.94
2023-12-04T07:36:00.330Z,23.96
2023-12-04T07:37:00.345Z,23.96
2023-12-04T07:38:00.247Z,23.95
2023-12-04T07:39:00.268Z,23.95
2023-12-04T07:40:00.554Z,23.96
2023-12-04T07:41:00.270Z,23.92
2023-12-04T07:42:12.048Z,23.86
2023-12-04T07:43:00.261Z,23.81
2023-12-04T07:44:00.244Z,23.73
2023-12-04T07:45:00.285Z,23.67
2023-12-04T07:46:00.337Z,23.66
2023-12-04T07:47:00.191Z,23.64
2023-12-04T07:48:00.298Z,23.62
2023-12-04T07:49:00.298Z,23.59
2023-12-04T07:50:00.330Z,23.62
2023-12-04T07:51:00.209Z,23.63
2023-12-04T07:52:00.310Z,23.63
2023-12-04T07:53:00.202Z,23.64
2023-12-04T07:54:02.859Z,23.64
2023-12-04T07:55:00.272Z,23.66
2023-12-04T07:56:00.182Z,23.67
2023-12-04T07:57:00.156Z,23.66
2023-12-04T07:58:00.296Z,23.66
2023-12-04T07:59:00.198Z,23.63
2023-12-04T08:00:00.126Z,23.62
2023-12-04T08:01:00.113Z,23.62
2023-12-04T08:02:00.170Z,23.55
2023-12-04T08:03:00.070Z,23.49
2023-12-04T08:04:00.217Z,23.49
2023-12-04T08:05:00.007Z,23.49
2023-12-04T08:06:00.086Z,23.49
2023-12-04T08:07:00.027Z,23.49
2023-12-04T08:07:59.937Z,23.48
2023-12-04T08:08:59.950Z,23.48
2023-12-04T08:10:00.015Z,23.47
2023-12-04T08:10:59.919Z,23.47
2023-12-04T08:12:00.214Z,23.45
2023-12-04T08:12:59.953Z,23.45
2023-12-04T08:13:59.884Z,23.48
2023-12-04T08:15:00.109Z,23.48
2023-12-04T08:15:59.902Z,23.48
2023-12-04T08:16:59.858Z,23.51
2023-12-04T08:17:59.963Z,23.54
2023-12-04T08:19:00.382Z,23.55
2023-12-04T08:19:59.972Z,23.58
2023-12-04T08:20:59.881Z,23.63
2023-12-04T08:21:59.840Z,23.66
2023-12-04T08:22:59.837Z,23.63
2023-12-04T08:23:59.829Z,23.62
2023-12-04T08:24:59.810Z,23.63
2023-12-04T08:26:01.074Z,23.64
2023-12-04T08:26:59.859Z,23.64
2023-12-04T08:27:59.810Z,23.67
2023-12-04T08:28:59.867Z,23.69
2023-12-04T08:29:59.815Z,23.70
2023-12-04T08:30:59.732Z,23.71
2023-12-04T08:31:59.705Z,23.73
2023-12-04T08:32:59.837Z,23.76
2023-12-04T08:33:59.749Z,23.74
2023-12-04T08:34:59.713Z,23.76
2023-12-04T08:35:59.753Z,23.77
2023-12-04T08:36:59.758Z,23.81
2023-12-04T08:38:10.362Z,23.84
2023-12-04T08:41:03.453Z,23.86
2023-12-04T08:41:10.495Z,23.92
2023-12-04T08:42:14.901Z,23.89
2023-12-04T08:43:09.635Z,23.86
2023-12-04T08:44:09.605Z,23.81
2023-12-04T08:45:09.583Z,23.77
2023-12-04T08:46:09.659Z,23.74
2023-12-04T08:47:10.527Z,23.69
2023-12-04T08:48:09.590Z,23.67
2023-12-04T08:49:09.577Z,23.66
2023-12-04T08:50:09.566Z,23.66
2023-12-04T08:51:09.533Z,23.66
2023-12-04T08:52:09.545Z,23.64
2023-12-04T08:53:09.462Z,23.62
2023-12-04T08:55:09.578Z,23.56
2023-12-04T08:56:11.277Z,23.54
2023-12-04T08:57:09.509Z,23.52
2023-12-04T08:58:09.570Z,23.54
2023-12-04T08:59:09.399Z,23.56
2023-12-04T09:00:09.434Z,23.56
2023-12-04T09:01:09.450Z,23.58
2023-12-04T09:02:11.616Z,23.62
2023-12-04T09:03:12.919Z,23.62
2023-12-04T09:04:09.655Z,23.63
2023-12-04T09:05:09.489Z,23.73
2023-12-04T09:06:09.485Z,23.85
2023-12-04T09:09:12.223Z,24.00
2023-12-04T09:10:14.081Z,23.95
2023-12-04T09:11:18.538Z,23.85
2023-12-04T09:12:09.285Z,23.77
2023-12-04T09:13:09.271Z,23.74
2023-12-04T09:14:09.306Z,23.84
2023-12-04T09:15:09.879Z,23.92
2023-12-04T09:16:09.310Z,24.00
2023-12-04T09:17:09.277Z,24.09
2023-12-04T09:18:09.352Z,24.16
2023-12-04T09:19:09.339Z,24.24
2023-12-04T09:20:09.372Z,24.31
2023-12-04T09:21:09.243Z,24.40
2023-12-04T09:22:17.105Z,24.46
2023-12-04T09:23:09.708Z,24.47
2023-12-04T09:24:09.209Z,24.46
2023-12-04T09:25:09.166Z,24.47
2023-12-04T09:26:09.474Z,24.48
2023-12-04T09:27:09.220Z,24.47
2023-12-04T09:28:09.088Z,24.44
2023-12-04T09:29:09.093Z,24.37
2023-12-04T09:30:09.106Z,24.29
2023-12-04T09:31:09.106Z,24.25
2023-12-04T09:32:09.087Z,24.24
2023-12-04T09:33:09.201Z,24.24
2023-12-04T09:34:09.042Z,24.22
2023-12-04T09:35:09.039Z,24.22
2023-12-04T09:36:09.048Z,24.25
2023-12-04T09:37:11.751Z,24.25
2023-12-04T09:38:09.019Z,24.24
2023-12-04T09:39:09.124Z,24.22
2023-12-04T09:40:08.961Z,24.21
2023-12-04T09:41:08.945Z,24.25
2023-12-04T09:42:09.128Z,24.31
2023-12-04T09:43:08.957Z,24.34
2023-12-04T09:44:08.965Z,24.37
2023-12-04T09:45:09.030Z,24.37
2023-12-04T09:46:08.907Z,24.38
2023-12-04T09:47:09.003Z,24.37
2023-12-04T09:48:09.373Z,24.38
2023-12-04T09:49:09.465Z,24.43
2023-12-04T09:50:09.094Z,24.41
2023-12-04T09:51:08.965Z,24.43
2023-12-04T09:52:08.857Z,24.46
2023-12-04T09:53:08.842Z,24.50
2023-12-04T09:54:08.936Z,24.56
2023-12-04T09:55:08.863Z,24.58
2023-12-04T09:56:08.844Z,24.62
2023-12-04T09:57:08.894Z,24.68
2023-12-04T09:58:08.778Z,24.77
2023-12-04T09:59:08.780Z,24.84
2023-12-04T10:00:08.793Z,24.89
2023-12-04T10:01:08.868Z,24.94
2023-12-04T10:02:08.881Z,24.99
2023-12-04T10:03:08.877Z,25.06
2023-12-04T10:04:08.701Z,25.11
2023-12-04T10:05:08.760Z,25.06
2023-12-04T10:06:08.857Z,25.01
2023-12-04T10:07:08.684Z,25.01
2023-12-04T10:08:08.723Z,25.03
2023-12-04T10:09:09.387Z,25.00
2023-12-04T10:10:08.663Z,24.96
2023-12-04T10:11:08.662Z,24.99
2023-12-04T10:12:08.690Z,25.03
2023-12-04T10:13:08.712Z,25.06
2023-12-04T10:14:08.787Z,25.11
2023-12-04T10:15:08.665Z,25.07
2023-12-04T10:16:08.672Z,25.04
2023-12-04T10:17:08.583Z,25.09
2023-12-04T10:18:08.757Z,25.12
2023-12-04T10:19:08.706Z,25.18
2023-12-04T10:20:08.575Z,25.22
2023-12-04T10:21:09.867Z,25.26
2023-12-04T10:22:08.552Z,25.29
2023-12-04T10:23:08.596Z,25.30
2023-12-04T10:24:09.496Z,25.26
2023-12-04T10:25:08.540Z,25.29
2023-12-04T10:26:08.567Z,25.30
2023-12-04T10:27:10.150Z,25.31
2023-12-04T10:28:24.342Z,25.33
2023-12-04T10:47:56.509Z,26.31
2023-12-04T10:50:43.915Z,26.41
2023-12-04T10:54:53.301Z,26.55
2023-12-04T10:56:06.717Z,26.55
2023-12-04T10:56:27.146Z,26.60
2023-12-04T10:57:27.426Z,26.63
2023-12-04T10:58:28.002Z,26.63
2023-12-04T10:59:43.412Z,26.68
2023-12-04T11:00:26.502Z,26.71
2023-12-04T11:01:27.567Z,26.68
2023-12-04T11:02:26.634Z,26.67
2023-12-04T11:03:26.489Z,26.68
2023-12-04T11:04:27.384Z,26.68
2023-12-04T11:05:38.601Z,26.64
2023-12-04T11:06:26.443Z,26.61
2023-12-04T11:07:27.238Z,26.63
2023-12-04T11:08:40.486Z,26.66
2023-12-04T11:09:26.335Z,26.73
2023-12-04T11:10:26.338Z,26.76
2023-12-04T11:11:35.172Z,26.83
2023-12-04T11:12:26.641Z,26.86
2023-12-04T11:13:34.663Z,26.92
2023-12-04T11:14:51.500Z,26.96
2023-12-04T11:15:26.453Z,26.98
2023-12-04T11:16:27.380Z,27.00
2023-12-04T11:18:04.661Z,27.08
2023-12-04T11:18:41.651Z,27.16
2023-12-04T11:23:52.344Z,27.16
2023-12-04T11:23:58.731Z,26.74
2023-12-04T11:24:58.591Z,26.56
2023-12-04T11:25:58.804Z,26.56
2023-12-04T11:26:58.508Z,26.61
2023-12-04T11:27:58.514Z,26.70
2023-12-04T11:28:58.505Z,26.83
2023-12-04T11:29:58.613Z,26.93
2023-12-04T11:30:58.641Z,27.04
2023-12-04T11:31:58.446Z,27.16
2023-12-04T11:32:58.447Z,27.25
2023-12-04T11:33:58.476Z,27.33
2023-12-04T11:34:58.755Z,27.40
2023-12-04T11:35:58.758Z,27.47
2023-12-04T11:37:03.141Z,27.52
2023-12-04T11:37:59.297Z,27.60
2023-12-04T11:38:58.389Z,27.66
2023-12-04T11:39:58.365Z,27.66
2023-12-04T11:40:58.383Z,27.71
2023-12-04T11:41:58.496Z,27.72
2023-12-04T11:43:00.036Z,27.75
2023-12-04T11:43:59.137Z,27.75
2023-12-04T11:44:58.914Z,27.79
2023-12-04T11:45:58.316Z,27.85
2023-12-04T11:46:58.377Z,27.91
2023-12-04T11:47:58.380Z,27.88
2023-12-04T11:48:58.794Z,27.88
2023-12-04T11:49:58.267Z,27.91
2023-12-04T11:50:58.225Z,27.98
2023-12-04T11:51:58.230Z,28.03
2023-12-04T11:52:58.263Z,28.10
2023-12-04T11:53:58.689Z,28.19
2023-12-04T11:54:58.283Z,28.22
2023-12-04T11:55:58.207Z,28.20
2023-12-04T11:56:58.217Z,28.22
2023-12-04T11:57:58.137Z,28.23
2023-12-04T11:58:58.325Z,28.22
2023-12-04T11:59:58.315Z,28.23
2023-12-04T12:00:58.185Z,28.20
2023-12-04T12:01:58.391Z,28.20
2023-12-04T12:03:16.498Z,28.27
2023-12-04T12:03:58.255Z,28.31
2023-12-04T12:04:58.218Z,28.37
2023-12-04T12:05:58.611Z,28.41
2023-12-04T12:06:58.388Z,28.47
2023-12-04T12:07:58.040Z,28.52
2023-12-04T12:08:58.083Z,28.56
2023-12-04T12:09:58.046Z,28.59
2023-12-04T12:10:58.064Z,28.30
2023-12-04T12:11:58.285Z,28.13
2023-12-04T12:12:57.993Z,28.03
2023-12-04T12:13:58.925Z,27.98
2023-12-04T12:14:58.027Z,28.03
2023-12-04T12:15:58.014Z,28.08
2023-12-04T12:16:57.986Z,28.09
2023-12-04T12:17:57.993Z,28.12
2023-12-04T12:18:57.978Z,28.20
2023-12-04T12:19:57.941Z,28.28
2023-12-04T12:20:57.922Z,28.40
2023-12-04T12:21:58.867Z,28.50
2023-12-04T12:22:57.966Z,28.60
2023-12-04T12:23:57.910Z,28.72
2023-12-04T12:24:57.870Z,28.83
2023-12-04T12:25:57.904Z,28.92
2023-12-04T12:26:57.972Z,29.00
2023-12-04T12:27:58.437Z,29.06
2023-12-04T12:28:57.870Z,29.09
2023-12-04T12:29:57.799Z,29.09
2023-12-04T12:30:58.412Z,29.10
2023-12-04T12:31:57.847Z,29.12
2023-12-04T12:32:57.864Z,29.18
2023-12-04T12:34:00.314Z,29.24
2023-12-04T12:34:57.898Z,29.30
2023-12-04T12:36:02.935Z,29.32
2023-12-04T12:36:58.184Z,29.28
2023-12-04T12:37:58.277Z,29.09
2023-12-04T12:38:57.776Z,28.94
2023-12-04T12:39:58.493Z,28.92
2023-12-04T12:40:58.004Z,28.96
2023-12-04T12:41:58.293Z,29.06
2023-12-04T12:42:59.913Z,29.15
2023-12-04T12:43:57.721Z,29.27
2023-12-04T12:44:57.741Z,29.37
2023-12-04T12:45:57.898Z,29.46
2023-12-04T12:46:57.699Z,29.53
2023-12-04T12:47:58.291Z,29.64
2023-12-04T12:48:57.892Z,29.71
2023-12-04T12:49:57.683Z,29.80
2023-12-04T12:50:57.642Z,29.90
2023-12-04T12:51:57.838Z,29.98
2023-12-04T12:52:57.544Z,30.05
2023-12-04T12:53:57.751Z,30.08
2023-12-04T12:54:57.710Z,30.02
2023-12-04T12:55:57.573Z,29.98
2023-12-04T12:56:57.567Z,29.87
2023-12-04T12:57:57.800Z,29.86
2023-12-04T12:58:57.629Z,29.84
2023-12-04T12:59:59.248Z,29.87
2023-12-04T13:00:57.674Z,29.89
2023-12-04T13:01:58.345Z,29.95
2023-12-04T13:02:57.603Z,30.06
2023-12-04T13:03:58.121Z,30.16
2023-12-04T13:04:58.688Z,30.21
2023-12-04T13:05:57.598Z,30.26
2023-12-04T13:06:57.407Z,30.32
2023-12-04T13:07:57.968Z,30.38
2023-12-04T13:08:57.454Z,30.46
2023-12-04T13:09:57.452Z,30.52
2023-12-04T13:10:57.461Z,30.56
2023-12-04T13:11:57.342Z,30.62
2023-12-04T13:12:57.386Z,30.67
2023-12-04T13:13:57.367Z,30.74
2023-12-04T13:14:57.576Z,30.77
2023-12-04T13:15:57.498Z,30.85
2023-12-04T13:16:57.411Z,30.92
2023-12-04T13:17:57.339Z,30.98
2023-12-04T13:18:57.366Z,30.98
2023-12-04T13:19:57.323Z,31.00
2023-12-04T13:20:57.321Z,31.04
2023-12-04T13:21:57.323Z,31.02
2023-12-04T13:22:57.236Z,31.04